createdAt,value
2022-08-26T00:01:55.454Z,47.88
2022-08-26T00:04:23.534Z,46.67
2022-08-26T00:06:50.213Z,47.97
2022-08-26T00:09:19.315Z,46.75
2022-08-26T00:11:46.139Z,46.97
2022-08-26T00:14:14.168Z,48.05
2022-08-26T00:19:07.512Z,47.78
2022-08-26T00:24:00.656Z,47.47
2022-08-26T00:26:28.472Z,47.53
2022-08-26T00:28:55.632Z,47.40
2022-08-26T00:31:22.042Z,47.78
2022-08-26T00:33:48.399Z,46.63
2022-08-26T00:36:20.355Z,47.35
2022-08-26T00:38:49.869Z,47.78
2022-08-26T00:41:18.582Z,45.83
2022-08-26T00:43:47.494Z,46.05
2022-08-26T00:46:18.858Z,46.47
2022-08-26T00:48:49.899Z,47.13
2022-08-26T00:51:24.598Z,45.45
2022-08-26T00:54:01.957Z,47.33
2022-08-26T00:56:43.194Z,47.40
2022-08-26T00:59:12.452Z,43.42
2022-08-26T01:01:41.219Z,46.30
2022-08-26T01:04:08.373Z,44.13
2022-08-26T01:06:34.909Z,44.42
2022-08-26T01:09:01.598Z,46.10
2022-08-26T01:11:28.056Z,45.80
2022-08-26T01:13:56.297Z,45.42
2022-08-26T01:16:24.867Z,44.67
2022-08-26T01:18:54.618Z,44.22
2022-08-26T01:21:40.743Z,45.03
2022-08-26T01:24:08.693Z,43.83
2022-08-26T01:26:41.604Z,44.97
2022-08-26T01:29:12.957Z,45.42
2022-08-26T01:31:42.059Z,44.95
2022-08-26T01:34:12.190Z,44.03
2022-08-26T01:36:39.300Z,44.97
2022-08-26T01:39:07.234Z,45.17
2022-08-26T01:41:35.078Z,45.70
2022-08-26T01:44:02.776Z,45.35
2022-08-26T01:46:29.662Z,45.72
2022-08-26T01:48:58.294Z,46.72
2022-08-26T01:51:25.357Z,45.25
2022-08-26T01:56:22.272Z,43.38
2022-08-26T01:58:53.560Z,44.50
2022-08-26T02:01:20.428Z,44.72
2022-08-26T02:04:07.050Z,44.58
2022-08-26T02:06:33.498Z,41.53
2022-08-26T02:09:01.612Z,44.35
2022-08-26T02:11:28.310Z,43.42
2022-08-26T02:13:57.053Z,43.40
2022-08-26T02:16:26.215Z,41.85
2022-08-26T02:18:53.481Z,42.45
2022-08-26T02:21:19.894Z,41.70
2022-08-26T02:23:48.187Z,40.60
2022-08-26T02:26:19.358Z,39.42
2022-08-26T02:29:15.405Z,39.92
2022-08-26T02:31:42.028Z,40.60
2022-08-26T02:34:10.735Z,39.22
2022-08-26T02:36:38.858Z,38.03
2022-08-26T02:39:06.407Z,38.47
2022-08-26T02:41:33.274Z,36.65
2022-08-26T02:43:59.832Z,35.60
2022-08-26T02:46:29.856Z,36.03
2022-08-26T02:48:56.842Z,35.03
2022-08-26T02:51:23.166Z,34.90
2022-08-26T02:53:49.662Z,33.85
2022-08-26T02:56:20.485Z,33.92
2022-08-26T02:58:49.241Z,32.55
2022-08-26T03:01:23.231Z,33.13
2022-08-26T03:03:49.791Z,30.25
2022-08-26T03:06:18.759Z,30.83
2022-08-26T03:08:45.461Z,29.90
2022-08-26T03:11:12.397Z,29.65
2022-08-26T03:13:39.722Z,28.50
2022-08-26T03:16:06.777Z,27.95
2022-08-26T03:18:33.613Z,27.40
2022-08-26T03:21:05.499Z,27.00
2022-08-26T03:23:32.515Z,27.85
2022-08-26T03:28:27.157Z,25.02
2022-08-26T03:30:53.686Z,23.80
2022-08-26T03:33:20.182Z,25.63
2022-08-26T03:35:50.684Z,24.50
2022-08-26T03:38:21.085Z,23.52
2022-08-26T03:40:50.668Z,23.25
2022-08-26T03:43:20.032Z,21.95
2022-08-26T03:45:48.704Z,22.67
2022-08-26T03:48:20.618Z,21.92
2022-08-26T03:50:47.282Z,23.55
2022-08-26T03:53:16.987Z,21.70
2022-08-26T03:55:47.513Z,22.02
2022-08-26T03:58:18.498Z,20.98
2022-08-26T04:00:44.937Z,20.58
2022-08-26T04:03:18.514Z,22.92
2022-08-26T04:05:45.146Z,21.33
2022-08-26T04:08:12.278Z,21.50
2022-08-26T04:10:38.949Z,21.25
2022-08-26T04:13:05.362Z,21.17
2022-08-26T04:15:31.745Z,19.85
2022-08-26T04:17:58.247Z,18.88
2022-08-26T04:20:25.185Z,21.17
2022-08-26T04:22:51.776Z,19.98
2022-08-26T04:25:22.417Z,20.77
2022-08-26T04:27:50.572Z,19.98
2022-08-26T04:30:19.358Z,20.48
2022-08-26T04:32:45.666Z,19.40
2022-08-26T04:35:12.016Z,18.30
2022-08-26T04:37:38.316Z,19.25
2022-08-26T04:40:05.297Z,17.88
2022-08-26T04:42:33.327Z,18.70
2022-08-26T04:45:00.647Z,17.25
2022-08-26T04:47:31.710Z,16.33
2022-08-26T04:49:58.843Z,17.38
2022-08-26T04:52:25.201Z,16.20
2022-08-26T04:54:51.867Z,16.52
2022-08-26T04:57:23.224Z,16.25
2022-08-26T04:59:49.561Z,17.20
2022-08-26T05:02:16.127Z,17.20
2022-08-26T05:04:43.616Z,16.55
2022-08-26T05:07:10.710Z,16.67
2022-08-26T05:12:03.493Z,17.10
2022-08-26T05:14:30.139Z,16.27
2022-08-26T05:16:56.440Z,15.68
2022-08-26T05:19:25.659Z,14.73
2022-08-26T05:21:54.476Z,14.85
2022-08-26T05:24:23.572Z,14.30
2022-08-26T05:26:50.122Z,15.18
2022-08-26T05:29:20.529Z,12.77
2022-08-26T05:31:50.325Z,13.18
2022-08-26T05:34:19.858Z,13.68
2022-08-26T05:36:49.288Z,13.18
2022-08-26T05:39:15.932Z,13.82
2022-08-26T05:41:43.162Z,11.88
2022-08-26T05:44:12.853Z,12.05
2022-08-26T05:46:41.211Z,11.40
2022-08-26T05:49:12.261Z,12.60
2022-08-26T05:51:39.846Z,11.07
2022-08-26T05:54:06.946Z,11.75
2022-08-26T05:59:01.492Z,11.73
2022-08-26T06:01:29.013Z,11.98
2022-08-26T06:03:57.186Z,12.30
2022-08-26T06:06:33.589Z,10.93
2022-08-26T06:09:01.498Z,12.25
2022-08-26T06:11:29.791Z,12.00
2022-08-26T06:14:03.101Z,11.68
2022-08-26T06:16:30.826Z,12.05
2022-08-26T06:18:57.665Z,12.20
2022-08-26T06:21:26.280Z,11.93
2022-08-26T06:24:12.895Z,13.27
2022-08-26T06:26:47.006Z,13.40
2022-08-26T06:29:24.285Z,12.15
2022-08-26T06:31:51.939Z,12.73
2022-08-26T06:34:21.516Z,12.05
2022-08-26T06:36:53.133Z,12.73
2022-08-26T06:39:19.648Z,12.35
2022-08-26T06:41:49.450Z,11.60
2022-08-26T06:44:16.199Z,11.07
2022-08-26T06:46:43.223Z,11.15
2022-08-26T06:49:11.164Z,11.20
2022-08-26T06:51:38.477Z,11.48
2022-08-26T06:54:05.775Z,9.77
2022-08-26T06:56:37.661Z,8.88
2022-08-26T06:59:04.041Z,7.97
2022-08-26T07:01:34.896Z,7.93
2022-08-26T07:04:03.995Z,7.43
2022-08-26T07:06:49.136Z,7.35
2022-08-26T07:09:16.007Z,6.95
2022-08-26T07:14:09.077Z,6.30
2022-08-26T07:16:35.794Z,6.00
2022-08-26T07:21:29.812Z,5.93
2022-08-26T07:24:01.286Z,5.68
2022-08-26T07:26:28.807Z,5.38
2022-08-26T07:28:56.394Z,5.10
2022-08-26T07:31:24.597Z,4.97
2022-08-26T07:33:51.280Z,5.50
2022-08-26T07:36:21.629Z,4.95
2022-08-26T07:38:51.340Z,5.43
2022-08-26T07:41:18.898Z,4.28
2022-08-26T07:43:45.921Z,4.15
2022-08-26T07:46:18.601Z,4.03
2022-08-26T07:48:53.402Z,4.35
2022-08-26T07:51:20.731Z,3.50
2022-08-26T07:53:52.335Z,4.28
2022-08-26T07:56:19.349Z,3.90
2022-08-26T07:58:49.011Z,3.85
2022-08-26T08:01:17.802Z,3.58
2022-08-26T08:03:51.723Z,3.90
2022-08-26T08:06:19.199Z,3.42
2022-08-26T08:08:45.769Z,4.03
2022-08-26T08:11:12.210Z,3.70
2022-08-26T08:13:38.713Z,3.70
2022-08-26T08:16:05.699Z,3.67
2022-08-26T08:18:31.980Z,3.53
2022-08-26T08:21:21.313Z,3.03
2022-08-26T08:23:48.790Z,3.25
2022-08-26T08:26:15.380Z,3.13
2022-08-26T08:28:43.433Z,3.80
2022-08-26T08:31:21.604Z,3.67
2022-08-26T08:33:59.688Z,4.05
2022-08-26T08:36:26.030Z,3.50
2022-08-26T08:39:02.128Z,4.32
2022-08-26T08:41:52.577Z,3.83
2022-08-26T08:44:21.074Z,3.63
2022-08-26T08:46:53.664Z,3.58
2022-08-26T08:49:20.448Z,3.03
2022-08-26T08:54:19.664Z,3.17
2022-08-26T08:56:48.354Z,3.15
2022-08-26T09:01:53.994Z,3.30
2022-08-26T09:04:38.321Z,3.63
2022-08-26T09:07:06.936Z,3.80
2022-08-26T09:09:39.141Z,3.38
2022-08-26T09:12:07.599Z,3.33
2022-08-26T09:14:35.658Z,3.40
2022-08-26T09:17:10.199Z,3.13
2022-08-26T09:19:41.349Z,3.38
2022-08-26T09:22:09.547Z,3.25
2022-08-26T09:24:42.132Z,3.22
2022-08-26T09:27:34.820Z,2.85
2022-08-26T09:30:07.154Z,3.00
2022-08-26T09:32:37.765Z,3.22
2022-08-26T09:35:07.752Z,4.10
2022-08-26T09:37:36.926Z,3.17
2022-08-26T09:40:15.686Z,3.58
2022-08-26T09:42:42.537Z,3.35
2022-08-26T09:45:11.802Z,3.63
2022-08-26T09:47:52.689Z,3.13
2022-08-26T09:50:18.955Z,2.92
2022-08-26T09:52:45.423Z,3.05
2022-08-26T09:55:14.171Z,3.00
2022-08-26T09:58:03.594Z,2.78
2022-08-26T10:00:38.441Z,3.08
2022-08-26T10:03:08.693Z,3.00
2022-08-26T10:06:07.460Z,3.00
2022-08-26T10:08:42.186Z,2.70
2022-08-26T10:11:26.163Z,4.25
2022-08-26T10:14:01.631Z,2.97
2022-08-26T10:16:33.240Z,3.13
2022-08-26T10:19:20.967Z,2.80
2022-08-26T10:22:00.001Z,2.75
2022-08-26T10:24:55.167Z,3.33
2022-08-26T10:27:24.507Z,3.05
2022-08-26T10:29:54.723Z,2.42
2022-08-26T10:32:30.355Z,2.63
2022-08-26T10:34:56.877Z,2.30
2022-08-26T10:37:25.923Z,2.63
2022-08-26T10:40:07.869Z,2.30
2022-08-26T10:42:40.353Z,2.65
2022-08-26T10:45:11.996Z,2.70
2022-08-26T10:47:44.963Z,2.35
2022-08-26T10:50:11.719Z,2.22
2022-08-26T10:52:49.517Z,2.13
2022-08-26T10:55:19.056Z,2.10
2022-08-26T10:58:11.833Z,2.50
2022-08-26T11:01:02.963Z,2.42
2022-08-26T11:03:37.006Z,2.50
2022-08-26T11:06:19.240Z,2.40
2022-08-26T11:08:49.614Z,2.10
2022-08-26T11:11:34.958Z,2.60
2022-08-26T11:14:04.645Z,1.95
2022-08-26T11:16:33.976Z,2.30
2022-08-26T11:19:01.107Z,2.40
2022-08-26T11:21:49.520Z,1.90
2022-08-26T11:24:35.984Z,2.70
2022-08-26T11:27:02.269Z,2.13
2022-08-26T11:29:48.987Z,2.40
2022-08-26T11:32:45.067Z,1.92
2022-08-26T11:35:20.994Z,2.13
2022-08-26T11:37:48.212Z,2.17
2022-08-26T11:42:41.589Z,2.42
2022-08-26T11:45:38.378Z,2.30
2022-08-26T11:48:18.329Z,2.30
2022-08-26T11:50:55.043Z,1.83
2022-08-26T11:53:22.597Z,2.20
2022-08-26T11:55:50.347Z,2.40
2022-08-26T11:58:19.249Z,1.85
2022-08-26T12:00:53.031Z,2.50
2022-08-26T12:03:23.199Z,2.65
2022-08-26T12:05:51.758Z,2.50
2022-08-26T12:08:27.813Z,2.65
2022-08-26T12:11:06.259Z,2.50
2022-08-26T12:13:33.819Z,2.40
2022-08-26T12:16:00.880Z,2.15
2022-08-26T12:18:30.520Z,3.15
2022-08-26T12:21:26.248Z,2.55
2022-08-26T12:23:54.662Z,2.20
2022-08-26T12:26:23.897Z,2.33
2022-08-26T12:28:59.537Z,2.53
2022-08-26T12:31:31.940Z,2.58
2022-08-26T12:33:59.359Z,2.75
2022-08-26T12:36:31.921Z,2.25
2022-08-26T12:39:06.752Z,2.28
2022-08-26T12:41:39.285Z,2.08
2022-08-26T12:44:05.768Z,2.63
2022-08-26T12:46:32.126Z,2.53
2022-08-26T12:49:01.304Z,2.47
2022-08-26T12:51:29.469Z,2.30
2022-08-26T12:53:56.441Z,2.40
2022-08-26T12:56:29.295Z,2.55
2022-08-26T12:59:03.083Z,2.20
2022-08-26T13:01:37.487Z,2.13
2022-08-26T13:04:04.003Z,1.73
2022-08-26T13:06:31.125Z,2.58
2022-08-26T13:09:01.741Z,2.42
2022-08-26T13:11:31.575Z,1.98
2022-08-26T13:14:02.623Z,2.10
2022-08-26T13:16:33.509Z,1.70
2022-08-26T13:19:01.637Z,1.90
2022-08-26T13:21:31.938Z,2.05
2022-08-26T13:24:14.463Z,1.92
2022-08-26T13:26:41.619Z,1.90
2022-08-26T13:29:10.540Z,1.63
2022-08-26T13:31:38.551Z,2.25
2022-08-26T13:34:04.984Z,1.83
2022-08-26T13:36:31.435Z,2.10
2022-08-26T13:38:58.068Z,1.88
2022-08-26T13:41:29.010Z,2.17
2022-08-26T13:43:56.023Z,1.70
2022-08-26T13:46:22.406Z,2.17
2022-08-26T13:48:48.773Z,1.80
2022-08-26T13:51:17.596Z,1.83
2022-08-26T13:53:44.052Z,1.98
2022-08-26T13:56:11.059Z,1.70
2022-08-26T13:58:37.607Z,1.65
2022-08-26T14:01:04.022Z,1.70
2022-08-26T14:03:30.582Z,1.50
2022-08-26T14:05:57.028Z,2.58
2022-08-26T14:08:23.479Z,2.00
2022-08-26T14:10:49.869Z,1.75
2022-08-26T14:13:25.135Z,1.55
2022-08-26T14:15:52.258Z,1.60
2022-08-26T14:18:19.919Z,1.95
2022-08-26T14:20:50.518Z,1.45
2022-08-26T14:23:18.613Z,2.03
2022-08-26T14:25:45.181Z,1.90
2022-08-26T14:28:12.011Z,1.95
2022-08-26T14:33:04.695Z,2.03
2022-08-26T14:35:31.309Z,1.48
2022-08-26T14:38:00.556Z,1.90
2022-08-26T14:40:28.671Z,1.73
2022-08-26T14:42:55.125Z,2.10
2022-08-26T14:45:26.005Z,1.90
2022-08-26T14:47:52.830Z,2.45
2022-08-26T14:50:20.979Z,3.03
2022-08-26T14:53:05.950Z,2.05
2022-08-26T14:55:35.946Z,1.88
2022-08-26T14:58:02.770Z,1.65
2022-08-26T15:02:55.744Z,1.85
2022-08-26T15:05:22.662Z,1.60
2022-08-26T15:10:17.918Z,2.00
2022-08-26T15:12:44.674Z,1.80
2022-08-26T15:15:11.910Z,1.70
2022-08-26T15:17:41.652Z,1.95
2022-08-26T15:20:11.737Z,2.22
2022-08-26T15:22:38.876Z,1.60
2022-08-26T15:25:06.106Z,2.08
2022-08-26T15:27:32.512Z,1.60
2022-08-26T15:29:58.823Z,2.13
2022-08-26T15:32:25.135Z,1.98
2022-08-26T15:34:52.965Z,1.40
2022-08-26T15:37:19.738Z,1.90
2022-08-26T15:39:48.510Z,1.85
2022-08-26T15:42:15.308Z,1.77
2022-08-26T15:44:45.310Z,1.63
2022-08-26T15:47:12.866Z,1.92
2022-08-26T15:49:39.816Z,1.60
2022-08-26T15:54:32.573Z,1.70
2022-08-26T15:57:02.329Z,1.70
2022-08-26T15:59:31.072Z,2.45
2022-08-26T16:01:58.082Z,1.60
2022-08-26T16:04:24.670Z,2.05
2022-08-26T16:06:52.132Z,1.45
2022-08-26T16:09:19.429Z,1.27
2022-08-26T16:11:45.839Z,1.70
2022-08-26T16:14:12.299Z,1.30
2022-08-26T16:16:41.717Z,1.25
2022-08-26T16:19:08.413Z,1.60
2022-08-26T16:21:34.957Z,1.10
2022-08-26T16:24:01.355Z,1.63
2022-08-26T16:26:29.092Z,1.73
2022-08-26T16:28:55.460Z,1.42
2022-08-26T16:31:21.968Z,1.85
2022-08-26T16:33:51.454Z,1.70
2022-08-26T16:36:20.412Z,1.70
2022-08-26T16:38:50.058Z,1.50
2022-08-26T16:41:20.326Z,1.75
2022-08-26T16:43:48.993Z,1.50
2022-08-26T16:46:16.388Z,2.30
2022-08-26T16:48:43.480Z,1.73
2022-08-26T16:51:13.616Z,1.95
2022-08-26T16:53:39.924Z,1.48
2022-08-26T16:56:06.602Z,1.63
2022-08-26T16:58:32.912Z,1.65
2022-08-26T17:00:59.290Z,2.65
2022-08-26T17:03:25.737Z,1.60
2022-08-26T17:05:52.230Z,2.00
2022-08-26T17:08:27.368Z,1.98
2022-08-26T17:10:55.176Z,1.58
2022-08-26T17:13:25.989Z,2.53
2022-08-26T17:16:08.142Z,1.83
2022-08-26T17:18:37.934Z,1.48
2022-08-26T17:21:05.690Z,2.03
2022-08-26T17:23:32.341Z,1.90
2022-08-26T17:25:58.699Z,1.58
2022-08-26T17:28:25.278Z,1.52
2022-08-26T17:30:51.736Z,1.90
2022-08-26T17:33:24.434Z,1.40
2022-08-26T17:35:51.156Z,2.47
2022-08-26T17:38:21.107Z,2.08
2022-08-26T17:40:48.663Z,2.03
2022-08-26T17:43:15.133Z,1.85
2022-08-26T17:45:41.458Z,2.20
2022-08-26T17:48:08.160Z,1.77
2022-08-26T17:50:34.946Z,1.52
2022-08-26T17:53:01.303Z,2.08
2022-08-26T17:55:28.698Z,1.90
2022-08-26T17:57:55.232Z,1.77
2022-08-26T18:00:23.257Z,1.70
2022-08-26T18:02:49.622Z,2.08
2022-08-26T18:05:17.417Z,1.85
2022-08-26T18:07:44.889Z,1.65
2022-08-26T18:10:13.404Z,1.92
2022-08-26T18:12:40.939Z,1.92
2022-08-26T18:15:07.797Z,2.15
2022-08-26T18:17:34.600Z,1.77
2022-08-26T18:20:03.455Z,1.88
2022-08-26T18:22:29.855Z,1.70
2022-08-26T18:24:59.214Z,1.90
2022-08-26T18:27:26.106Z,1.95
2022-08-26T18:29:52.587Z,1.70
2022-08-26T18:32:18.865Z,1.80
2022-08-26T18:34:45.235Z,1.95
2022-08-26T18:39:39.567Z,1.88
2022-08-26T18:42:06.037Z,1.98
2022-08-26T18:44:32.468Z,1.80
2022-08-26T18:46:58.766Z,1.95
2022-08-26T18:49:25.135Z,1.95
2022-08-26T18:51:52.326Z,2.15
2022-08-26T18:56:50.662Z,2.00
2022-08-26T18:59:20.342Z,1.73
2022-08-26T19:01:56.909Z,1.95
2022-08-26T19:04:23.468Z,1.83
2022-08-26T19:06:51.187Z,1.70
2022-08-26T19:09:20.838Z,2.55
2022-08-26T19:11:50.259Z,1.73
2022-08-26T19:14:20.060Z,1.90
2022-08-26T19:16:47.860Z,1.83
2022-08-26T19:19:14.966Z,1.73
2022-08-26T19:24:12.116Z,1.67
2022-08-26T19:26:39.077Z,1.70
2022-08-26T19:29:05.590Z,1.67
2022-08-26T19:31:31.932Z,1.60
2022-08-26T19:33:58.971Z,1.60
2022-08-26T19:38:52.256Z,2.10
2022-08-26T19:41:20.647Z,1.80
2022-08-26T19:43:49.957Z,1.75
2022-08-26T19:46:19.028Z,1.77
2022-08-26T19:48:45.910Z,1.60
2022-08-26T19:51:14.834Z,1.83
2022-08-26T19:53:43.579Z,1.60
2022-08-26T19:56:10.501Z,1.63
2022-08-26T19:58:36.864Z,1.98
2022-08-26T20:01:03.695Z,1.60
2022-08-26T20:03:30.180Z,1.80
2022-08-26T20:05:56.540Z,2.03
2022-08-26T20:08:31.768Z,1.80
2022-08-26T20:11:05.931Z,1.75
2022-08-26T20:13:32.758Z,1.55
2022-08-26T20:15:59.121Z,2.03
2022-08-26T20:18:43.956Z,1.50
2022-08-26T20:21:27.112Z,2.00
2022-08-26T20:24:00.858Z,1.77
2022-08-26T20:26:28.610Z,2.10
2022-08-26T20:28:55.487Z,1.67
2022-08-26T20:31:21.861Z,1.60
2022-08-26T20:33:48.751Z,2.20
2022-08-26T20:36:15.505Z,1.75
2022-08-26T20:38:41.884Z,1.70
2022-08-26T20:41:08.274Z,2.00
2022-08-26T20:43:34.641Z,1.52
2022-08-26T20:46:01.364Z,2.42
2022-08-26T20:48:28.062Z,2.50
2022-08-26T20:50:58.936Z,1.65
2022-08-26T20:53:26.289Z,1.92
2022-08-26T20:55:54.855Z,1.73
2022-08-26T20:58:23.385Z,1.80
2022-08-26T21:00:50.009Z,1.40
2022-08-26T21:03:19.502Z,2.08
2022-08-26T21:05:45.803Z,1.80
2022-08-26T21:08:12.512Z,1.50
2022-08-26T21:10:39.305Z,1.90
2022-08-26T21:13:05.705Z,2.33
2022-08-26T21:15:32.053Z,1.52
2022-08-26T21:17:59.001Z,1.50
2022-08-26T21:20:25.322Z,1.85
2022-08-26T21:22:51.690Z,2.10
2022-08-26T21:25:18.127Z,1.73
2022-08-26T21:27:44.493Z,1.70
2022-08-26T21:30:11.099Z,2.15
2022-08-26T21:32:37.368Z,1.83
2022-08-26T21:35:03.761Z,1.60
2022-08-26T21:37:30.060Z,2.22
2022-08-26T21:39:57.183Z,2.13
2022-08-26T21:44:52.980Z,1.80
2022-08-26T21:47:22.433Z,1.85
2022-08-26T21:49:49.048Z,1.95
2022-08-26T21:52:15.384Z,2.45
2022-08-26T21:54:41.658Z,2.47
2022-08-26T21:57:16.091Z,2.00
2022-08-26T21:59:42.388Z,1.80
2022-08-26T22:02:08.706Z,1.90
2022-08-26T22:04:35.759Z,1.80
2022-08-26T22:07:02.147Z,2.35
2022-08-26T22:09:30.877Z,2.10
2022-08-26T22:11:57.234Z,2.20
2022-08-26T22:14:30.463Z,2.28
2022-08-26T22:16:57.744Z,2.10
2022-08-26T22:19:24.500Z,1.98
2022-08-26T22:21:52.510Z,1.83
2022-08-26T22:24:19.720Z,2.55
2022-08-26T22:29:14.641Z,1.73
2022-08-26T22:31:41.839Z,1.52
2022-08-26T22:36:34.776Z,1.60
2022-08-26T22:39:01.140Z,2.10
2022-08-26T22:41:27.774Z,2.05
2022-08-26T22:43:54.505Z,2.28
2022-08-26T22:46:24.615Z,2.65
2022-08-26T22:48:53.814Z,1.83
2022-08-26T22:51:20.666Z,2.15
2022-08-26T22:53:50.061Z,2.35
2022-08-26T22:56:18.256Z,2.05
2022-08-26T22:58:44.739Z,2.00
2022-08-26T23:01:11.291Z,2.00
2022-08-26T23:03:37.771Z,2.08
2022-08-26T23:06:10.047Z,2.05
2022-08-26T23:08:36.986Z,1.83
2022-08-26T23:11:06.679Z,2.30
2022-08-26T23:13:32.965Z,1.48
2022-08-26T23:16:03.602Z,2.40
2022-08-26T23:18:29.926Z,2.30
2022-08-26T23:20:56.218Z,2.37
2022-08-26T23:23:22.821Z,2.15
2022-08-26T23:25:49.724Z,1.92
2022-08-26T23:28:18.755Z,2.13
2022-08-26T23:30:48.853Z,1.83
2022-08-26T23:33:15.201Z,2.10
2022-08-26T23:35:41.505Z,2.17
2022-08-26T23:38:09.755Z,2.07
2022-08-26T23:40:38.718Z,2.53
2022-08-26T23:45:31.930Z,2.22
2022-08-26T23:47:59.096Z,2.00
2022-08-26T23:53:19.372Z,1.88
2022-08-26T23:55:48.120Z,2.00
2022-08-26T23:58:15.141Z,2.72
